createdAt,value
2022-11-19T00:01:26.219Z,3.17
2022-11-19T00:03:53.515Z,3.03
2022-11-19T00:06:23.254Z,3.10
2022-11-19T00:08:50.698Z,3.03
2022-11-19T00:11:39.366Z,3.10
2022-11-19T00:14:06.929Z,3.28
2022-11-19T00:16:33.470Z,3.28
2022-11-19T00:19:00.481Z,3.10
2022-11-19T00:21:27.672Z,3.60
2022-11-19T00:23:55.018Z,3.10
2022-11-19T00:26:22.459Z,3.08
2022-11-19T00:28:49.488Z,3.55
2022-11-19T00:31:17.149Z,3.45
2022-11-19T00:33:45.664Z,3.42
2022-11-19T00:36:14.857Z,3.60
2022-11-19T00:38:42.277Z,3.17
2022-11-19T00:41:09.245Z,3.55
2022-11-19T00:43:48.831Z,3.33
2022-11-19T00:46:19.226Z,3.45
2022-11-19T00:48:47.836Z,3.58
2022-11-19T00:51:15.366Z,3.50
2022-11-19T00:53:42.416Z,3.88
2022-11-19T00:56:12.165Z,3.38
2022-11-19T00:58:39.489Z,3.58
2022-11-19T01:01:07.139Z,3.80
2022-11-19T01:03:34.300Z,3.40
2022-11-19T01:06:01.372Z,3.42
2022-11-19T01:08:29.062Z,3.67
2022-11-19T01:10:56.461Z,3.42
2022-11-19T01:13:35.208Z,3.80
2022-11-19T01:16:08.072Z,3.30
2022-11-19T01:18:36.657Z,3.83
2022-11-19T01:21:05.202Z,3.67
2022-11-19T01:23:32.413Z,3.78
2022-11-19T01:25:59.528Z,3.83
2022-11-19T01:28:26.157Z,4.25
2022-11-19T01:30:53.288Z,4.03
2022-11-19T01:33:19.934Z,3.95
2022-11-19T01:35:59.651Z,3.85
2022-11-19T01:38:28.287Z,3.75
2022-11-19T01:40:55.977Z,3.95
2022-11-19T01:43:48.601Z,4.05
2022-11-19T01:46:24.780Z,3.92
2022-11-19T01:49:17.301Z,4.35
2022-11-19T01:51:56.545Z,3.78
2022-11-19T01:54:31.442Z,3.78
2022-11-19T01:57:06.780Z,4.40
2022-11-19T01:59:34.044Z,4.15
2022-11-19T02:02:00.623Z,4.20
2022-11-19T02:04:29.033Z,4.90
2022-11-19T02:06:57.486Z,4.05
2022-11-19T02:09:26.642Z,4.30
2022-11-19T02:12:11.844Z,4.40
2022-11-19T02:14:57.235Z,4.82
2022-11-19T02:17:50.359Z,4.77
2022-11-19T02:20:42.776Z,4.30
2022-11-19T02:23:25.192Z,5.03
2022-11-19T02:26:10.793Z,4.60
2022-11-19T02:28:37.734Z,4.65
2022-11-19T02:31:31.834Z,5.18
2022-11-19T02:34:24.647Z,4.55
2022-11-19T02:37:08.957Z,4.45
2022-11-19T02:39:49.179Z,4.50
2022-11-19T02:42:18.949Z,4.25
2022-11-19T02:45:15.315Z,4.47
2022-11-19T02:47:46.855Z,4.80
2022-11-19T02:50:21.426Z,4.30
2022-11-19T02:52:49.798Z,4.28
2022-11-19T02:55:19.343Z,4.40
2022-11-19T02:58:35.077Z,4.32
2022-11-19T03:01:22.597Z,4.35
2022-11-19T03:04:08.994Z,4.60
2022-11-19T03:09:02.923Z,3.97
2022-11-19T03:11:32.445Z,4.40
2022-11-19T03:14:22.716Z,4.50
2022-11-19T03:17:01.446Z,4.60
2022-11-19T03:19:37.501Z,4.20
2022-11-19T03:22:11.337Z,4.35
2022-11-19T03:24:43.887Z,4.05
2022-11-19T03:27:10.378Z,4.03
2022-11-19T03:29:40.219Z,3.90
2022-11-19T03:32:13.619Z,4.28
2022-11-19T03:34:42.175Z,4.45
2022-11-19T03:37:10.146Z,4.75
2022-11-19T03:39:38.395Z,4.07
2022-11-19T03:42:09.338Z,4.13
2022-11-19T03:44:45.125Z,4.00
2022-11-19T03:47:17.413Z,4.10
2022-11-19T03:49:48.708Z,3.97
2022-11-19T03:52:19.014Z,4.13
2022-11-19T03:54:45.885Z,3.97
2022-11-19T03:57:19.391Z,4.20
2022-11-19T03:59:46.906Z,3.83
2022-11-19T04:02:14.158Z,4.00
2022-11-19T04:04:41.636Z,4.03
2022-11-19T04:07:13.674Z,4.20
2022-11-19T04:09:41.805Z,4.20
2022-11-19T04:12:16.726Z,3.90
2022-11-19T04:14:43.418Z,3.57
2022-11-19T04:17:10.119Z,4.00
2022-11-19T04:19:37.123Z,3.95
2022-11-19T04:22:03.947Z,4.22
2022-11-19T04:24:30.992Z,3.88
2022-11-19T04:26:58.226Z,3.72
2022-11-19T04:29:25.269Z,3.90
2022-11-19T04:31:52.311Z,4.00
2022-11-19T04:34:19.076Z,3.95
2022-11-19T04:36:46.474Z,3.90
2022-11-19T04:39:13.023Z,4.47
2022-11-19T04:41:40.350Z,3.78
2022-11-19T04:44:07.272Z,4.03
2022-11-19T04:46:34.759Z,4.00
2022-11-19T04:49:01.344Z,3.80
2022-11-19T04:51:27.861Z,3.60
2022-11-19T04:53:55.041Z,3.65
2022-11-19T04:56:21.974Z,3.78
2022-11-19T04:58:48.531Z,3.38
2022-11-19T05:01:15.604Z,3.40
2022-11-19T05:03:42.245Z,3.22
2022-11-19T05:06:08.803Z,3.65
2022-11-19T05:08:37.906Z,3.65
2022-11-19T05:11:05.340Z,3.90
2022-11-19T05:13:32.427Z,3.55
2022-11-19T05:15:59.444Z,3.40
2022-11-19T05:18:26.057Z,3.72
2022-11-19T05:20:53.300Z,3.50
2022-11-19T05:23:19.962Z,3.80
2022-11-19T05:25:47.417Z,3.45
2022-11-19T05:28:13.980Z,3.33
2022-11-19T05:30:40.551Z,3.30
2022-11-19T05:33:07.148Z,3.20
2022-11-19T05:35:33.642Z,3.33
2022-11-19T05:38:00.953Z,2.83
2022-11-19T05:40:27.524Z,3.50
2022-11-19T05:42:54.103Z,2.67
2022-11-19T05:45:21.313Z,3.13
2022-11-19T05:47:48.906Z,3.35
2022-11-19T05:50:15.668Z,3.03
2022-11-19T05:52:42.679Z,3.15
2022-11-19T05:55:09.457Z,2.75
2022-11-19T05:57:37.146Z,3.03
2022-11-19T06:00:05.221Z,3.42
2022-11-19T06:02:31.871Z,3.33
2022-11-19T06:04:58.515Z,3.20
2022-11-19T06:07:25.672Z,2.90
2022-11-19T06:09:52.481Z,3.03
2022-11-19T06:12:19.561Z,3.08
2022-11-19T06:14:46.615Z,2.80
2022-11-19T06:17:13.153Z,3.53
2022-11-19T06:19:39.708Z,3.30
2022-11-19T06:22:06.315Z,3.03
2022-11-19T06:24:32.960Z,2.78
2022-11-19T06:27:00.012Z,3.42
2022-11-19T06:29:27.015Z,3.55
2022-11-19T06:31:53.554Z,3.10
2022-11-19T06:34:20.091Z,2.90
2022-11-19T06:36:50.575Z,3.00
2022-11-19T06:39:18.040Z,3.10
2022-11-19T06:41:45.028Z,3.15
2022-11-19T06:44:11.605Z,3.03
2022-11-19T06:46:38.479Z,3.38
2022-11-19T06:49:05.867Z,3.08
2022-11-19T06:51:32.921Z,3.22
2022-11-19T06:54:00.091Z,3.05
2022-11-19T06:56:26.645Z,3.00
2022-11-19T06:58:58.094Z,3.28
2022-11-19T07:01:24.689Z,3.38
2022-11-19T07:03:51.318Z,3.00
2022-11-19T07:06:17.952Z,3.42
2022-11-19T07:08:44.523Z,3.38
2022-11-19T07:11:25.969Z,3.20
2022-11-19T07:13:59.999Z,3.05
2022-11-19T07:16:33.651Z,3.30
2022-11-19T07:19:03.200Z,3.40
2022-11-19T07:21:30.588Z,2.92
2022-11-19T07:23:58.432Z,3.28
2022-11-19T07:26:25.682Z,3.28
2022-11-19T07:28:53.298Z,3.05
2022-11-19T07:31:19.887Z,3.30
2022-11-19T07:33:46.554Z,2.97
2022-11-19T07:36:18.202Z,2.78
2022-11-19T07:38:45.100Z,2.60
2022-11-19T07:41:30.109Z,2.80
2022-11-19T07:43:57.170Z,2.50
2022-11-19T07:46:24.413Z,2.83
2022-11-19T07:48:55.425Z,3.10
2022-11-19T07:51:23.334Z,3.92
2022-11-19T07:53:50.609Z,3.88
2022-11-19T07:56:18.789Z,3.65
2022-11-19T07:58:45.539Z,3.63
2022-11-19T08:01:17.579Z,4.25
2022-11-19T08:03:52.052Z,3.85
2022-11-19T08:06:22.678Z,3.70
2022-11-19T08:08:49.751Z,3.83
2022-11-19T08:11:17.084Z,4.78
2022-11-19T08:13:43.763Z,4.50
2022-11-19T08:16:34.277Z,4.35
2022-11-19T08:19:10.193Z,3.85
2022-11-19T08:24:03.851Z,4.55
2022-11-19T08:26:30.938Z,5.05
2022-11-19T08:28:57.561Z,5.35
2022-11-19T08:31:24.165Z,5.50
2022-11-19T08:33:50.705Z,6.22
2022-11-19T08:36:17.415Z,6.05
2022-11-19T08:38:44.013Z,5.57
2022-11-19T08:41:29.084Z,5.57
2022-11-19T08:43:55.690Z,4.88
2022-11-19T08:46:22.231Z,5.15
2022-11-19T08:48:48.755Z,5.00
2022-11-19T08:51:16.500Z,4.45
2022-11-19T08:53:43.050Z,4.60
2022-11-19T08:56:11.776Z,4.78
2022-11-19T08:58:41.911Z,4.18
2022-11-19T09:01:13.178Z,3.92
2022-11-19T09:03:40.431Z,3.70
2022-11-19T09:06:07.543Z,4.03
2022-11-19T09:08:35.100Z,3.92
2022-11-19T09:11:13.345Z,3.60
2022-11-19T09:13:39.980Z,3.35
2022-11-19T09:16:09.624Z,3.28
2022-11-19T09:18:41.969Z,3.00
2022-11-19T09:21:11.136Z,3.35
2022-11-19T09:23:37.756Z,3.03
2022-11-19T09:26:10.139Z,2.97
2022-11-19T09:28:37.165Z,3.20
2022-11-19T09:31:10.012Z,3.30
2022-11-19T09:33:39.975Z,3.13
2022-11-19T09:36:06.874Z,2.85
2022-11-19T09:38:35.217Z,3.08
2022-11-19T09:41:51.380Z,2.90
2022-11-19T09:44:48.565Z,2.70
2022-11-19T09:47:36.224Z,2.70
2022-11-19T09:50:28.635Z,2.95
2022-11-19T09:53:17.311Z,2.47
2022-11-19T09:55:46.652Z,2.42
2022-11-19T09:58:22.945Z,1.92
2022-11-19T10:00:49.557Z,2.80
2022-11-19T10:03:20.454Z,2.80
2022-11-19T10:05:57.329Z,2.60
2022-11-19T10:08:39.177Z,2.38
2022-11-19T10:11:11.345Z,2.60
2022-11-19T10:13:51.650Z,2.28
2022-11-19T10:16:30.563Z,2.55
2022-11-19T10:18:59.995Z,2.20
2022-11-19T10:21:41.121Z,2.47
2022-11-19T10:24:18.263Z,2.17
2022-11-19T10:26:50.945Z,2.38
2022-11-19T10:29:23.067Z,2.17
2022-11-19T10:31:51.326Z,2.33
2022-11-19T10:34:32.570Z,2.38
2022-11-19T10:37:10.967Z,2.22
2022-11-19T10:39:46.370Z,2.22
2022-11-19T10:42:25.493Z,2.58
2022-11-19T10:45:15.932Z,2.15
2022-11-19T10:48:09.195Z,2.22
2022-11-19T10:50:37.145Z,2.28
2022-11-19T10:53:33.852Z,2.38
2022-11-19T10:58:47.820Z,1.95
2022-11-19T11:01:28.562Z,2.35
2022-11-19T11:04:13.739Z,2.45
2022-11-19T11:06:52.925Z,2.35
2022-11-19T11:09:29.492Z,2.10
2022-11-19T11:12:17.173Z,2.38
2022-11-19T11:14:54.253Z,2.30
2022-11-19T11:17:32.755Z,2.20
2022-11-19T11:20:08.174Z,2.28
2022-11-19T11:22:36.301Z,2.35
2022-11-19T11:25:07.212Z,2.47
2022-11-19T11:27:35.735Z,2.00
2022-11-19T11:30:23.711Z,2.00
2022-11-19T11:32:50.290Z,2.00
2022-11-19T11:35:34.087Z,2.20
2022-11-19T11:38:02.189Z,1.70
2022-11-19T11:40:29.854Z,2.00
2022-11-19T11:42:56.745Z,1.77
2022-11-19T11:45:34.876Z,1.58
2022-11-19T11:48:08.473Z,1.80
2022-11-19T11:50:37.051Z,1.92
2022-11-19T11:53:10.060Z,2.10
2022-11-19T11:55:38.636Z,1.88
2022-11-19T11:58:24.333Z,1.80
2022-11-19T12:00:54.621Z,1.80
2022-11-19T12:03:22.318Z,1.63
2022-11-19T12:06:14.971Z,1.70
2022-11-19T12:08:53.516Z,1.60
2022-11-19T12:11:26.197Z,1.85
2022-11-19T12:13:55.828Z,1.67
2022-11-19T12:16:38.713Z,2.05
2022-11-19T12:19:23.873Z,2.00
2022-11-19T12:21:53.051Z,1.70
2022-11-19T12:24:30.521Z,1.40
2022-11-19T12:27:23.036Z,1.55
2022-11-19T12:30:08.417Z,1.63
2022-11-19T12:32:56.386Z,1.43
2022-11-19T12:35:34.780Z,1.65
2022-11-19T12:38:07.021Z,1.50
2022-11-19T12:40:48.420Z,1.30
2022-11-19T12:43:36.590Z,1.40
2022-11-19T12:46:24.745Z,1.67
2022-11-19T12:49:19.324Z,1.20
2022-11-19T12:52:04.538Z,1.67
2022-11-19T12:55:19.468Z,1.48
2022-11-19T12:57:52.069Z,1.52
2022-11-19T13:00:26.952Z,1.40
2022-11-19T13:03:04.286Z,1.37
2022-11-19T13:05:43.530Z,1.20
2022-11-19T13:08:32.683Z,1.50
2022-11-19T13:11:08.770Z,1.33
2022-11-19T13:13:39.874Z,1.10
2022-11-19T13:16:14.694Z,1.30
2022-11-19T13:18:45.529Z,1.05
2022-11-19T13:21:21.504Z,1.52
2022-11-19T13:23:49.156Z,1.70
2022-11-19T13:26:29.872Z,1.30
2022-11-19T13:29:04.952Z,1.20
2022-11-19T13:31:51.558Z,1.38
2022-11-19T13:34:47.295Z,1.13
2022-11-19T13:37:27.366Z,1.30
2022-11-19T13:40:02.586Z,1.10
2022-11-19T13:43:04.203Z,1.35
2022-11-19T13:45:39.618Z,1.60
2022-11-19T13:48:22.030Z,1.10
2022-11-19T13:50:52.665Z,1.08
2022-11-19T13:53:41.021Z,1.20
2022-11-19T13:56:13.982Z,1.20
2022-11-19T13:58:47.897Z,1.20
2022-11-19T14:01:30.283Z,1.25
2022-11-19T14:04:25.840Z,1.35
2022-11-19T14:07:04.327Z,1.00
2022-11-19T14:10:21.027Z,1.40
2022-11-19T14:12:58.737Z,1.00
2022-11-19T14:15:59.147Z,0.88
2022-11-19T14:18:56.830Z,1.20
2022-11-19T14:21:45.015Z,0.90
2022-11-19T14:25:09.594Z,1.10
2022-11-19T14:27:36.891Z,1.10
2022-11-19T14:30:13.940Z,1.10
2022-11-19T14:32:51.701Z,1.00
2022-11-19T14:35:27.728Z,1.13
2022-11-19T14:37:57.680Z,0.90
2022-11-19T14:40:28.331Z,0.90
2022-11-19T14:43:19.579Z,1.00
2022-11-19T14:46:21.237Z,1.15
2022-11-19T14:48:54.857Z,1.00
2022-11-19T14:51:34.968Z,1.08
2022-11-19T14:54:18.159Z,1.08
2022-11-19T14:56:58.916Z,0.90
2022-11-19T14:59:29.465Z,1.08
2022-11-19T15:02:04.876Z,0.95
2022-11-19T15:04:38.925Z,1.02
2022-11-19T15:07:16.976Z,1.10
2022-11-19T15:10:04.345Z,0.70
2022-11-19T15:12:46.409Z,1.00
2022-11-19T15:15:36.106Z,0.80
2022-11-19T15:18:02.774Z,1.00
2022-11-19T15:20:49.784Z,0.75
2022-11-19T15:23:41.117Z,0.90
2022-11-19T15:26:28.333Z,0.93
2022-11-19T15:29:04.106Z,1.10
2022-11-19T15:34:49.006Z,1.00
2022-11-19T15:37:43.361Z,0.93
2022-11-19T15:40:16.800Z,0.90
2022-11-19T15:42:51.725Z,0.98
2022-11-19T15:45:23.667Z,0.93
2022-11-19T15:48:00.982Z,0.80
2022-11-19T15:50:28.206Z,0.98
2022-11-19T15:53:02.865Z,0.82
2022-11-19T15:55:31.923Z,1.10
2022-11-19T15:58:08.625Z,0.80
2022-11-19T16:00:47.800Z,0.85
2022-11-19T16:03:16.721Z,0.70
2022-11-19T16:05:50.140Z,0.90
2022-11-19T16:08:17.219Z,0.88
2022-11-19T16:10:46.974Z,0.85
2022-11-19T16:13:41.247Z,0.90
2022-11-19T16:16:56.052Z,0.80
2022-11-19T16:19:23.041Z,0.80
2022-11-19T16:21:59.732Z,0.90
2022-11-19T16:24:45.909Z,0.82
2022-11-19T16:27:18.590Z,1.13
2022-11-19T16:29:46.469Z,1.00
2022-11-19T16:32:18.142Z,0.80
2022-11-19T16:34:45.721Z,0.90
2022-11-19T16:37:17.290Z,0.80
2022-11-19T16:39:50.903Z,0.90
2022-11-19T16:42:23.052Z,0.80
2022-11-19T16:44:53.559Z,0.98
2022-11-19T16:47:33.197Z,0.85
2022-11-19T16:50:05.028Z,1.02
2022-11-19T16:52:39.182Z,0.85
2022-11-19T16:55:17.648Z,0.68
2022-11-19T16:58:18.513Z,1.00
2022-11-19T17:00:49.348Z,0.93
2022-11-19T17:03:27.525Z,0.70
2022-11-19T17:05:55.658Z,0.70
2022-11-19T17:08:34.560Z,1.00
2022-11-19T17:11:42.042Z,1.00
2022-11-19T17:14:34.735Z,1.00
2022-11-19T17:17:02.551Z,1.30
2022-11-19T17:19:34.272Z,1.10
2022-11-19T17:22:17.701Z,1.00
2022-11-19T17:24:46.547Z,1.38
2022-11-19T17:27:29.147Z,1.00
2022-11-19T17:30:21.009Z,1.20
2022-11-19T17:32:52.387Z,1.67
2022-11-19T17:35:39.983Z,1.38
2022-11-19T17:38:19.886Z,1.70
2022-11-19T17:40:49.598Z,1.95
2022-11-19T17:43:39.625Z,1.90
2022-11-19T17:46:06.264Z,1.80
2022-11-19T17:48:34.368Z,1.73
2022-11-19T17:51:00.976Z,1.42
2022-11-19T17:53:27.472Z,2.10
2022-11-19T17:55:55.378Z,2.72
2022-11-19T17:58:21.967Z,3.03
2022-11-19T18:00:49.048Z,2.70
2022-11-19T18:03:16.228Z,3.08
2022-11-19T18:05:47.680Z,3.47
2022-11-19T18:08:15.639Z,3.42
2022-11-19T18:10:47.904Z,3.78
2022-11-19T18:13:19.174Z,3.95
2022-11-19T18:15:45.683Z,2.95
2022-11-19T18:18:12.276Z,3.20
2022-11-19T18:20:39.355Z,3.85
2022-11-19T18:23:06.527Z,3.70
2022-11-19T18:25:33.167Z,3.47
2022-11-19T18:28:00.279Z,3.67
2022-11-19T18:30:26.912Z,3.47
2022-11-19T18:32:54.136Z,3.50
2022-11-19T18:35:22.366Z,3.35
2022-11-19T18:37:49.314Z,3.30
2022-11-19T18:40:16.248Z,3.42
2022-11-19T18:43:03.431Z,3.42
2022-11-19T18:45:30.607Z,3.03
2022-11-19T18:47:57.189Z,2.85
2022-11-19T18:50:29.346Z,3.20
2022-11-19T18:52:56.526Z,3.13
2022-11-19T18:55:23.099Z,2.97
2022-11-19T18:57:49.609Z,2.80
2022-11-19T19:00:16.342Z,3.08
2022-11-19T19:02:42.871Z,2.92
2022-11-19T19:05:10.164Z,2.78
2022-11-19T19:07:36.782Z,3.10
2022-11-19T19:10:04.204Z,2.83
2022-11-19T19:12:30.702Z,2.53
2022-11-19T19:14:58.888Z,2.53
2022-11-19T19:17:26.356Z,2.60
2022-11-19T19:19:53.473Z,2.75
2022-11-19T19:22:20.663Z,3.10
2022-11-19T19:24:47.804Z,2.85
2022-11-19T19:27:15.350Z,2.55
2022-11-19T19:29:42.179Z,2.60
2022-11-19T19:32:09.570Z,2.70
2022-11-19T19:34:36.713Z,2.70
2022-11-19T19:37:05.258Z,2.72
2022-11-19T19:39:31.903Z,2.42
2022-11-19T19:41:58.866Z,2.42
2022-11-19T19:44:25.422Z,2.47
2022-11-19T19:46:52.581Z,2.55
2022-11-19T19:49:20.147Z,2.33
2022-11-19T19:51:46.868Z,2.80
2022-11-19T19:54:15.778Z,2.30
2022-11-19T19:56:42.496Z,2.45
2022-11-19T19:59:11.503Z,2.33
2022-11-19T20:01:38.619Z,2.50
2022-11-19T20:04:10.437Z,2.30
2022-11-19T20:06:40.966Z,2.67
2022-11-19T20:09:21.808Z,2.30
2022-11-19T20:11:48.395Z,2.40
2022-11-19T20:14:14.984Z,2.50
2022-11-19T20:16:41.772Z,2.83
2022-11-19T20:19:12.263Z,2.42
2022-11-19T20:21:38.883Z,2.50
2022-11-19T20:24:11.419Z,2.65
2022-11-19T20:26:38.630Z,2.28
2022-11-19T20:29:06.464Z,2.20
2022-11-19T20:31:34.881Z,2.60
2022-11-19T20:34:03.175Z,2.47
2022-11-19T20:36:32.131Z,2.30
2022-11-19T20:38:58.969Z,2.58
2022-11-19T20:41:45.429Z,2.60
2022-11-19T20:44:20.071Z,2.13
2022-11-19T20:47:04.879Z,2.20
2022-11-19T20:49:38.916Z,1.83
2022-11-19T20:52:06.598Z,2.05
2022-11-19T20:54:33.677Z,2.92
2022-11-19T20:57:00.771Z,2.22
2022-11-19T20:59:28.013Z,2.47
2022-11-19T21:01:56.053Z,2.00
2022-11-19T21:04:24.365Z,2.25
2022-11-19T21:06:51.601Z,2.30
2022-11-19T21:09:19.710Z,1.98
2022-11-19T21:11:46.776Z,2.20
2022-11-19T21:14:13.323Z,2.20
2022-11-19T21:16:39.852Z,2.00
2022-11-19T21:19:06.444Z,1.90
2022-11-19T21:21:32.970Z,1.98
2022-11-19T21:24:00.036Z,2.13
2022-11-19T21:26:28.668Z,2.15
2022-11-19T21:28:57.988Z,2.03
2022-11-19T21:31:38.131Z,1.95
2022-11-19T21:34:08.905Z,1.90
2022-11-19T21:36:36.423Z,2.35
2022-11-19T21:39:05.251Z,2.13
2022-11-19T21:41:32.089Z,2.28
2022-11-19T21:43:58.768Z,2.30
2022-11-19T21:46:25.304Z,1.90
2022-11-19T21:48:51.836Z,2.10
2022-11-19T21:51:24.161Z,1.90
2022-11-19T21:53:55.132Z,2.30
2022-11-19T21:56:21.943Z,2.40
2022-11-19T21:58:48.466Z,2.30
2022-11-19T22:01:15.917Z,2.38
2022-11-19T22:03:42.630Z,2.22
2022-11-19T22:06:10.911Z,1.60
2022-11-19T22:08:40.807Z,1.85
2022-11-19T22:11:26.872Z,2.45
2022-11-19T22:13:53.821Z,2.08
2022-11-19T22:16:21.521Z,1.88
2022-11-19T22:18:48.563Z,2.00
2022-11-19T22:21:15.561Z,1.98
2022-11-19T22:23:43.126Z,2.42
2022-11-19T22:26:12.029Z,2.22
2022-11-19T22:28:38.862Z,2.00
2022-11-19T22:31:05.924Z,2.05
2022-11-19T22:33:34.351Z,2.33
2022-11-19T22:36:08.127Z,1.98
2022-11-19T22:38:37.682Z,1.90
2022-11-19T22:41:10.373Z,2.40
2022-11-19T22:43:39.012Z,2.45
2022-11-19T22:46:07.364Z,2.05
2022-11-19T22:48:35.032Z,1.90
2022-11-19T22:51:28.168Z,2.13
2022-11-19T22:53:55.495Z,1.80
2022-11-19T22:56:25.515Z,2.25
2022-11-19T22:58:52.785Z,2.28
2022-11-19T23:01:26.323Z,2.05
2022-11-19T23:03:54.127Z,2.35
2022-11-19T23:06:20.844Z,2.05
2022-11-19T23:08:47.864Z,1.88
2022-11-19T23:11:17.037Z,2.20
2022-11-19T23:13:44.603Z,2.05
2022-11-19T23:16:14.626Z,2.08
2022-11-19T23:18:52.639Z,2.30
2022-11-19T23:21:21.965Z,2.33
2022-11-19T23:23:49.237Z,2.15
2022-11-19T23:26:19.063Z,2.05
2022-11-19T23:28:46.145Z,2.35
2022-11-19T23:31:20.264Z,2.30
2022-11-19T23:33:47.868Z,2.28
2022-11-19T23:36:16.871Z,2.33
2022-11-19T23:38:44.868Z,2.15
2022-11-19T23:41:14.518Z,2.30
2022-11-19T23:43:41.723Z,2.30
2022-11-19T23:46:14.252Z,2.28
2022-11-19T23:48:42.699Z,2.40
2022-11-19T23:51:15.565Z,2.20
2022-11-19T23:53:43.224Z,2.10
2022-11-19T23:56:11.217Z,2.35
2022-11-19T23:58:38.521Z,2.40
